Sao Joaquim da Barra, Brazil
Current Conditions -  °F | °C
As of 10:00 PM on Friday 31 Oct 2014 (Local Time) from SBRP Reporting Station
Clear Clear  
Wind Chill: 81°   Ceiling: Unl
Heat Index: 82°   Visibility: 6mi
Dew Point: 63°   Wind: 6mph
Humidity: 54%   Direction: 300°WNW
Pressure: 29.94"   Gusts: NA
Location:  20.58°S, 47.86°W
Report Text: SBRP 010000Z 30005KT CAVOK 27/17 Q1014
Loading
Personal Weather Stations






























Interactive Weather Map
Tropical Storm Tracking
New forecast layout! Learn more

10-Day Weather Forecast

Advertisements
Track Severe Weather on mobile